Pen Mar, Pennsylvania
Current Conditions -  °F | °C
As of 2:53 PM on Thursday 29 Jan 2015 (Local Time) from KRYT Reporting Station
Unknown Precip Unknown Precip  
Wind Chill: 22°   Ceiling: 5000
Heat Index: 29°   Visibility: 7mi
Dew Point: 11°   Wind: 7mph
Humidity: 47%   Direction: 210°SSW
Pressure: 30.04"   Gusts: NA
Location:  39.7777°N, 77.5693°W
Report Text: KRYT 291953Z AUTO 21006KT 7SM UP BKN050 OVC060 M02/M12 A3004 RMK AO2 UPB44 SLP194 P0000 T10171117 $
Loading
Personal Weather Stations






























Interactive Weather Map New forecast layout! Learn more

10-Day Weather Forecast

Advertisements
Track Severe Weather on mobile